MX-0035 weather

Punta Prieta Airstrip
Punta Prieta, Baja California, Mexico

Public forecast

Using degrees Celsius for public forecast. Weather courtesy of forecast.io.

METAR (pilot weather report)

Closest report is General Ignacio P. Garcia International Airport, 163.3 nm (302.4 km) E. Retrieved 2019/05/25 20:40 UTC (11 minutes ago):

MMHO 252040Z 20012KT 10SM SKC 36/01 A2983 RMK SLP098 57016 957

TAF (pilot weather forecast)

Closest forecast is General Ignacio P. Garcia International Airport, 163.3 nm (302.4 km) E. Retrieved 2019/05/25 18:49 UTC (2 hours ago):

TAF MMHO 251642Z 2518/2618 20010KT P6SM SKC TEMPO 2520/2524 20016KT FM260300 25006KT P6SM SKC FM261600 23010KT P6SM SKC